Nearby METAR Reports

 

KSEE - San Diego/Santee, California, USA
Distance from station: E 4mi, 6km
Updated: Wed, 22-Mar-2023 1:55am PDT
Partly cloudy
Partly cloudy
 Wind from WSW
Wind: WSW 6 mph , 9 km/h
Temperature: 52°F , 11°C
Dew Point: 46°F , 8°C
Humidity: 82%
Barometer: 29.92 inHg , 1013.2 hPa
Clouds: Partly cloudy
Visibility: 9 miles , 14 km
Cloud details: Few Clouds 2800 ft
Partly cloudy 3300 ft
Partly cloudy 4000 ft
2023/03/22 08:55 KSEE 220855Z AUTO 24005KT 9SM FEW028 SCT033 SCT040 11/08 A2992 RMK AO2
KMYF - San Diego/Mntgmy, California, USA
Distance from station: W 6mi, 10km
Updated: Wed, 22-Mar-2023 1:53am PDT
Clear
Clear
 Wind from WSW
Wind: WSW 13 mph , 20 km/h
Temperature: 54°F , 12°C
Dew Point: 43°F , 6°C
Humidity: 67%
Barometer: 29.92 inHg , 1013.2 hPa
Clouds: Clear
Visibility: 10 miles , 16 km
2023/03/22 08:53 KMYF 220853Z AUTO 24011KT 10SM CLR 12/06 A2992 RMK AO2 SLP129 T01170061 51014
 
KNKX - Miramar Nas/San, California, USA
Distance from station: WNW 7mi, 11km
Updated: Wed, 22-Mar-2023 1:55am PDT
Clear
Clear
 Wind from WSW
Wind: WSW 9 mph , 15 km/h
Temperature: 50°F , 10°C
Wind Chill: 46°F , 8°C
Dew Point: 45°F , 7°C
Humidity: 82%
Barometer: 29.91 inHg , 1012.9 hPa
Clouds: Clear
Visibility: 10 miles , 16 km
2023/03/22 08:55 KNKX 220855Z 25008KT 10SM CLR 10/07 A2991 RMK AO2 SLP126 T01000067 52015
KSAN - San Diego, California, USA
Distance from station: WSW 11mi, 17km
Updated: Wed, 22-Mar-2023 1:51am PDT
Partly cloudy
Partly cloudy
 Wind from WSW
Wind: WSW 15 mph , 24 km/h
Temperature: 57°F , 14°C
Dew Point: 45°F , 7°C
Humidity: 63%
Barometer: 29.94 inHg , 1013.9 hPa
Clouds: Partly cloudy
Visibility: 10 miles , 16 km
Cloud details: Few Clouds 3600 ft
Partly cloudy 4800 ft
Partly cloudy 10000 ft
2023/03/22 08:51 KSAN 220851Z 25013KT 10SM FEW036 SCT048 SCT100 14/07 A2994 RMK AO2 RAB10E24 SLP137 P0000 60000 T01390067 51014
 
KNZY - North Island Nas, California, USA
Distance from station: SW 13mi, 22km
Updated: Wed, 22-Mar-2023 1:52am PDT
Partly cloudy
Partly cloudy
 Wind from WSW
Wind: WSW 16 mph , 26 km/h, Gust: 23 mph , 37 km/h
Temperature: 57°F , 14°C
Dew Point: 57°F , 14°C
Humidity: 100%
Barometer: 29.92 inHg , 1013.2 hPa
Clouds: Partly cloudy
Visibility: 10 miles , 16 km
Cloud details: Few Clouds 2500 ft
Partly cloudy 3700 ft
Partly cloudy 5000 ft
2023/03/22 08:52 KNZY 220852Z 24014G20KT 10SM FEW025 SCT037 SCT050 14/14 A2992 RMK AO2 SLP131 T01390133 51015 $
KRNM - Ramona, California, USA
Distance from station: NNE 16mi, 26km
Updated: Wed, 22-Mar-2023 2:01am PDT
Mostly cloudy
Mostly cloudy
 Wind from SW
Wind: SW 15 mph , 24 km/h, Gust: 25 mph , 41 km/h
Temperature: 48°F , 9°C
Wind Chill: 42°F , 6°C
Dew Point: 43°F , 6°C
Humidity: 82%
Barometer: 29.89 inHg , 1012.2 hPa
Clouds: Mostly cloudy
Visibility: 10 miles , 16 km
Cloud details: Few Clouds 2000 ft
Partly cloudy 2400 ft
Mostly cloudy 3200 ft
2023/03/22 09:01 KRNM 220901Z AUTO 23013G22KT 10SM FEW020 SCT024 BKN032 09/06 A2989 RMK AO2 T00940056
 
KSDM - San Diego/Brown, California, USA
Distance from station: S 16mi, 26km
Updated: Wed, 22-Mar-2023 1:53am PDT
Overcast
Overcast
 Wind from WSW
Wind: WSW 9 mph , 15 km/h
Temperature: 52°F , 11°C
Dew Point: 45°F , 7°C
Humidity: 77%
Barometer: 29.92 inHg , 1013.2 hPa
Clouds: Overcast
Visibility: 10 miles , 16 km
Cloud details: Mostly cloudy 4000 ft
Overcast 5000 ft
2023/03/22 08:53 KSDM 220853Z AUTO 25008KT 10SM BKN040 OVC050 11/07 A2992 RMK AO2 SLP131 T01110072 51013
KNRS - Imperial Beach, California, USA
Distance from station: SSW 18mi, 29km
Updated: Wed, 22-Mar-2023 1:53am PDT
Mostly cloudy
Mostly cloudy
 Wind from W
Wind: W 16 mph , 26 km/h
Temperature: 55°F , 13°C
Dew Point: 46°F , 8°C
Humidity: 72%
Barometer: 29.94 inHg , 1013.9 hPa
Clouds: Mostly cloudy
Visibility: 10 miles , 16 km
Cloud details: Few Clouds 2900 ft
Mostly cloudy 3600 ft
2023/03/22 08:53 KNRS 220853Z AUTO 26014KT 10SM FEW029 BKN036 13/08 A2994 RMK AO2 SLP136 60000 T01280078 51013 $
 
MMTJ - Tijuana Intl Arp, Mexico
Distance from station: S 20mi, 32km
Updated: Wed, 22-Mar-2023 1:40am PDT
Mostly cloudy
Mostly cloudy
 Wind from SSW
Wind: SSW 10 mph , 17 km/h
Temperature: 54°F , 12°C
Dew Point: 48°F , 9°C
Humidity: 82%
Barometer: 29.95 inHg , 1014.2 hPa
Clouds: Mostly cloudy
Visibility: 5 miles , 8 km
Cloud details: Mostly cloudy 2500 ft
2023/03/22 08:40 MMTJ 220840Z 21009KT 5SM BKN025 12/09 A2995 RMK SLP149 52020 914 8/400
KCRQ - Carlsbad, California, USA
Distance from station: NW 26mi, 43km
Updated: Wed, 22-Mar-2023 1:53am PDT
Mostly cloudy
Mostly cloudy
 Wind from WSW
Wind: WSW 14 mph , 22 km/h
Temperature: 54°F , 12°C
Dew Point: 46°F , 8°C
Humidity: 77%
Barometer: 29.90 inHg , 1012.5 hPa
Clouds: Mostly cloudy
Visibility: 10 miles , 16 km
Cloud details: Few Clouds 3500 ft
Mostly cloudy 6500 ft
2023/03/22 08:53 KCRQ 220853Z AUTO 24012KT 10SM FEW035 BKN065 12/08 A2990 RMK AO2 SLP122 T01220078 53017
 
KOKB - Oceanside, California, USA
Distance from station: NW 33mi, 54km
Updated: Wed, 22-Mar-2023 1:52am PDT
Mostly cloudy
Mostly cloudy
 Wind from WSW
Wind: WSW 12 mph , 19 km/h, Gust: 21 mph , 33 km/h
Temperature: 54°F , 12°C
Dew Point: 45°F , 7°C
Humidity: 72%
Barometer: 29.90 inHg , 1012.5 hPa
Clouds: Mostly cloudy
Visibility: 9 miles , 14 km
Cloud details: Few Clouds 4900 ft
Mostly cloudy 7000 ft
2023/03/22 08:52 KOKB 220852Z AUTO 25010G18KT 9SM FEW049 BKN070 12/07 A2990 RMK AO2 SLP125 60002 T01220072 53019
KCZZ - Campo, California, USA
Distance from station: ESE 35mi, 56km
Updated: Mon, 26-Oct-2020 8:52am PDT
NOT Current

 Wind from NE
Wind: NE 14 mph , 22 km/h, Gust: 20 mph , 31 km/h
Temperature: 48°F , 9°C
Wind Chill: 42°F , 6°C
Dew Point: 27°F , -3°C
Humidity: 43%
Barometer: 29.99 inHg , 1015.6 hPa
2020/10/26 15:52 KCZZ 261552Z AUTO 05012G17KT 09/M03 A2999 RMK AO1 SLP140 T00891028
 
KNFG - Camp Pendleton, California, USA
Distance from station: NNW 37mi, 59km
Updated: Wed, 22-Mar-2023 1:52am PDT
Overcast
Overcast
 Wind from WSW
Wind: WSW 13 mph , 20 km/h, Gust: 22 mph , 35 km/h
Temperature: 54°F , 12°C
Dew Point: 45°F , 7°C
Humidity: 72%
Barometer: 29.90 inHg , 1012.5 hPa
Clouds: Overcast
Visibility: 10 miles , 16 km
Cloud details: Few Clouds 3100 ft
Mostly cloudy 5500 ft
Overcast 6500 ft
2023/03/22 08:52 KNFG 220852Z AUTO 25011G19KT 10SM FEW031 BKN055 OVC065 12/07 A2990 RMK AO2 SLP125 T01220072 53018 $
KRIV - Riverside/March, California, USA
Distance from station: N 74mi, 119km
Updated: Wed, 22-Mar-2023 1:55am PDT
Nearby showers, Mostly cloudy
Nearby showers, Mostly cloudy
 Wind from S
Wind: S 5 mph , 7 km/h
Temperature: 45°F , 7°C
Wind Chill: 42°F , 6°C
Dew Point: 43°F , 6°C
Humidity: 93%
Barometer: 29.85 inHg , 1010.8 hPa
Summary: Nearby Showers
Clouds: Mostly cloudy
Visibility: 10 miles , 16 km
Cloud details: Partly cloudy 2100 ft
Mostly cloudy 3300 ft
Mostly cloudy 4000 ft
2023/03/22 08:55 KRIV 220855Z 18004KT 10SM VCSH SCT021 BKN033 BKN040 07/06 A2985 RMK AO2A RAB16E48DZB48E50 SLP107 P0001 60004 T00700058 50013
 
KTRM - Thermal/Palm Spg, California, USA
Distance from station: NE 75mi, 121km
Updated: Wed, 22-Mar-2023 1:52am PDT
Few Clouds
Few Clouds
 Wind from NNE
Wind: NNE 10 mph , 17 km/h
Temperature: 54°F , 12°C
Dew Point: 39°F , 4°C
Humidity: 58%
Barometer: 29.83 inHg , 1010.2 hPa
Clouds: Few Clouds
Visibility: 10 miles , 16 km
Cloud details: Few Clouds 7000 ft
2023/03/22 08:52 KTRM 220852Z AUTO 02009KT 10SM FEW070 12/04 A2983 RMK AO2 SLP103 T01220044 53023 $
KPSP - Palm Springs, California, USA
Distance from station: NNE 76mi, 122km
Updated: Wed, 22-Mar-2023 1:53am PDT
Overcast
Overcast
 Wind from NNE
Wind: NNE 8 mph , 13 km/h
Temperature: 52°F , 11°C
Dew Point: 45°F , 7°C
Humidity: 77%
Barometer: 29.83 inHg , 1010.2 hPa
Clouds: Overcast
Visibility: 10 miles , 16 km
Cloud details: Mostly cloudy 4400 ft
Mostly cloudy 7500 ft
Overcast 9000 ft
2023/03/22 08:53 KPSP 220853Z AUTO 03007KT 10SM BKN044 BKN075 OVC090 11/07 A2983 RMK AO2 RAE46 SLP102 P0002 60005 T01060067 53011
 
KSNA - Costa Mesa, California, USA
Distance from station: NW 76mi, 123km
Updated: Wed, 22-Mar-2023 1:53am PDT
Mostly cloudy
Mostly cloudy
 Wind from SW
Wind: SW 12 mph , 19 km/h
Temperature: 54°F , 12°C
Dew Point: 45°F , 7°C
Humidity: 72%
Barometer: 29.87 inHg , 1011.5 hPa
Clouds: Mostly cloudy
Visibility: 10 miles , 16 km
Cloud details: Few Clouds 2800 ft
Partly cloudy 3900 ft
Mostly cloudy 4800 ft
2023/03/22 08:53 KSNA 220853Z AUTO 22010KT 10SM FEW028 SCT039 BKN048 12/07 A2987 RMK AO2 SLP114 60001 T01220067 53013
KNJK - El Centro Naf, California, USA
Distance from station: E 79mi, 127km
Updated: Wed, 22-Mar-2023 1:56am PDT
Mostly cloudy
Mostly cloudy
 Wind from varies
Wind: varies 6 mph , 9 km/h
Temperature: 57°F , 14°C
Dew Point: 39°F , 4°C
Humidity: 51%
Barometer: 29.87 inHg , 1011.5 hPa
Clouds: Mostly cloudy
Visibility: 10 miles , 16 km
Cloud details: Mostly cloudy 6500 ft
Mostly cloudy 10000 ft
2023/03/22 08:56 KNJK 220856Z AUTO VRB05KT 10SM BKN065 BKN100 14/04 A2987 RMK AO2 RAE01 SLP130 P0000 60000 T01390044 51023 $
 
KAJO - Corona Muni, California, USA
Distance from station: NNW 82mi, 132km
Updated: Mon, 13-Mar-2023 11:56am PDT
NOT Current
Few Clouds
Few Clouds
 Wind from NW
Wind: NW 8 mph , 13 km/h
Temperature: 64°F , 18°C
Dew Point: 52°F , 11°C
Humidity: 64%
Barometer: 30.15 inHg , 1021 hPa
Clouds: Few Clouds
Visibility: 10 miles , 16 km
Cloud details: Few Clouds 2400 ft
2023/03/13 18:56 KAJO 131856Z AUTO 31007KT 10SM FEW024 18/11 A3015 RMK AO2 SLP205 T01780111